sensor_id;sensor_type;location;lat;lon;timestamp;temperature;humidity
53264;DHT22;39153;52.680;6.172;2023-02-01T00:00:10;6.00;99.90
53264;DHT22;39153;52.680;6.172;2023-02-01T00:02:37;6.00;99.90
53264;DHT22;39153;52.680;6.172;2023-02-01T00:05:09;6.00;99.90
53264;DHT22;39153;52.680;6.172;2023-02-01T00:07:36;5.90;99.90
53264;DHT22;39153;52.680;6.172;2023-02-01T00:10:03;5.90;99.90
53264;DHT22;39153;52.680;6.172;2023-02-01T00:12:30;5.90;99.90
53264;DHT22;39153;52.680;6.172;2023-02-01T00:14:56;5.80;99.90
53264;DHT22;39153;52.680;6.172;2023-02-01T00:17:22;5.80;99.90
53264;DHT22;39153;52.680;6.172;2023-02-01T00:19:47;5.70;99.90
53264;DHT22;39153;52.680;6.172;2023-02-01T00:22:13;5.70;99.90
53264;DHT22;39153;52.680;6.172;2023-02-01T00:24:39;5.70;99.90
53264;DHT22;39153;52.680;6.172;2023-02-01T00:27:04;5.70;99.90
53264;DHT22;39153;52.680;6.172;2023-02-01T00:29:30;5.70;99.90
53264;DHT22;39153;52.680;6.172;2023-02-01T00:31:56;5.70;99.90
53264;DHT22;39153;52.680;6.172;2023-02-01T00:34:21;5.70;99.90
53264;DHT22;39153;52.680;6.172;2023-02-01T00:36:47;5.70;99.90
53264;DHT22;39153;52.680;6.172;2023-02-01T00:39:14;5.70;99.90
53264;DHT22;39153;52.680;6.172;2023-02-01T00:41:39;5.70;99.90
53264;DHT22;39153;52.680;6.172;2023-02-01T00:44:06;5.70;99.90
53264;DHT22;39153;52.680;6.172;2023-02-01T00:46:31;5.80;99.90
53264;DHT22;39153;52.680;6.172;2023-02-01T00:48:58;5.70;99.90
53264;DHT22;39153;52.680;6.172;2023-02-01T00:51:26;5.70;99.90
53264;DHT22;39153;52.680;6.172;2023-02-01T00:53:52;5.80;99.90
53264;DHT22;39153;52.680;6.172;2023-02-01T00:56:19;5.80;99.90
53264;DHT22;39153;52.680;6.172;2023-02-01T00:58:45;5.80;99.90
53264;DHT22;39153;52.680;6.172;2023-02-01T01:01:17;5.80;99.90
53264;DHT22;39153;52.680;6.172;2023-02-01T01:03:46;5.80;99.90
53264;DHT22;39153;52.680;6.172;2023-02-01T01:06:15;5.80;99.90
53264;DHT22;39153;52.680;6.172;2023-02-01T01:08:41;5.80;99.90
53264;DHT22;39153;52.680;6.172;2023-02-01T01:11:12;5.70;99.90
53264;DHT22;39153;52.680;6.172;2023-02-01T01:13:38;5.80;99.90
53264;DHT22;39153;52.680;6.172;2023-02-01T01:16:06;5.80;99.90
53264;DHT22;39153;52.680;6.172;2023-02-01T01:18:32;5.70;99.90
53264;DHT22;39153;52.680;6.172;2023-02-01T01:20:59;5.70;99.90
53264;DHT22;39153;52.680;6.172;2023-02-01T01:23:25;5.70;99.90
53264;DHT22;39153;52.680;6.172;2023-02-01T01:25:51;5.70;99.90
53264;DHT22;39153;52.680;6.172;2023-02-01T01:28:17;5.70;99.90
53264;DHT22;39153;52.680;6.172;2023-02-01T01:30:42;5.70;99.90
53264;DHT22;39153;52.680;6.172;2023-02-01T01:33:08;5.70;99.90
53264;DHT22;39153;52.680;6.172;2023-02-01T01:35:34;5.70;99.90
53264;DHT22;39153;52.680;6.172;2023-02-01T01:38:00;5.70;99.90
53264;DHT22;39153;52.680;6.172;2023-02-01T01:40:27;5.90;99.90
53264;DHT22;39153;52.680;6.172;2023-02-01T01:42:53;6.00;99.90
53264;DHT22;39153;52.680;6.172;2023-02-01T01:45:29;5.70;99.90
53264;DHT22;39153;52.680;6.172;2023-02-01T01:47:58;5.80;99.90
53264;DHT22;39153;52.680;6.172;2023-02-01T01:50:28;5.80;99.90
53264;DHT22;39153;52.680;6.172;2023-02-01T01:52:56;5.80;99.90
53264;DHT22;39153;52.680;6.172;2023-02-01T01:55:25;5.80;99.90
53264;DHT22;39153;52.680;6.172;2023-02-01T01:57:58;5.80;99.90
53264;DHT22;39153;52.680;6.172;2023-02-01T02:00:25;5.90;99.90
53264;DHT22;39153;52.680;6.172;2023-02-01T02:02:57;5.90;99.90
53264;DHT22;39153;52.680;6.172;2023-02-01T02:05:24;5.80;99.90
53264;DHT22;39153;52.680;6.172;2023-02-01T02:07:51;5.80;99.90
53264;DHT22;39153;52.680;6.172;2023-02-01T02:10:18;6.20;99.90
53264;DHT22;39153;52.680;6.172;2023-02-01T02:12:46;5.80;99.90
53264;DHT22;39153;52.680;6.172;2023-02-01T02:15:15;5.80;99.90
53264;DHT22;39153;52.680;6.172;2023-02-01T02:18:04;5.80;99.90
53264;DHT22;39153;52.680;6.172;2023-02-01T02:28:30;5.90;99.90
53264;DHT22;39153;52.680;6.172;2023-02-01T02:34:25;6.00;99.90
53264;DHT22;39153;52.680;6.172;2023-02-01T02:39:41;5.90;99.90
53264;DHT22;39153;52.680;6.172;2023-02-01T02:42:26;5.90;99.90
53264;DHT22;39153;52.680;6.172;2023-02-01T02:45:21;5.90;99.90
53264;DHT22;39153;52.680;6.172;2023-02-01T02:48:26;5.90;99.90
53264;DHT22;39153;52.680;6.172;2023-02-01T02:51:15;6.00;99.90
53264;DHT22;39153;52.680;6.172;2023-02-01T02:54:13;6.00;99.90
53264;DHT22;39153;52.680;6.172;2023-02-01T02:56:59;6.00;99.90
53264;DHT22;39153;52.680;6.172;2023-02-01T02:59:45;5.90;99.90
53264;DHT22;39153;52.680;6.172;2023-02-01T03:02:31;6.00;99.90
53264;DHT22;39153;52.680;6.172;2023-02-01T03:05:16;6.00;99.90
53264;DHT22;39153;52.680;6.172;2023-02-01T03:07:57;6.10;99.90
53264;DHT22;39153;52.680;6.172;2023-02-01T03:13:10;6.10;99.90
53264;DHT22;39153;52.680;6.172;2023-02-01T03:21:20;6.10;99.90
53264;DHT22;39153;52.680;6.172;2023-02-01T03:23:48;6.10;99.90
53264;DHT22;39153;52.680;6.172;2023-02-01T03:26:17;6.10;99.90
53264;DHT22;39153;52.680;6.172;2023-02-01T03:28:52;6.50;99.90
53264;DHT22;39153;52.680;6.172;2023-02-01T03:31:22;6.10;99.90
53264;DHT22;39153;52.680;6.172;2023-02-01T03:33:47;6.10;99.90
53264;DHT22;39153;52.680;6.172;2023-02-01T03:44:27;6.20;99.90
53264;DHT22;39153;52.680;6.172;2023-02-01T03:46:58;6.20;99.90
53264;DHT22;39153;52.680;6.172;2023-02-01T03:49:29;6.20;99.90
53264;DHT22;39153;52.680;6.172;2023-02-01T03:51:58;6.20;99.90
53264;DHT22;39153;52.680;6.172;2023-02-01T03:54:24;6.20;99.90
53264;DHT22;39153;52.680;6.172;2023-02-01T03:56:52;6.30;99.90
53264;DHT22;39153;52.680;6.172;2023-02-01T03:59:19;6.40;99.90
53264;DHT22;39153;52.680;6.172;2023-02-01T04:01:45;6.30;99.90
53264;DHT22;39153;52.680;6.172;2023-02-01T04:04:11;6.30;99.90
53264;DHT22;39153;52.680;6.172;2023-02-01T04:06:49;6.30;99.90
53264;DHT22;39153;52.680;6.172;2023-02-01T04:09:15;6.30;99.90
53264;DHT22;39153;52.680;6.172;2023-02-01T04:11:41;6.30;99.90
53264;DHT22;39153;52.680;6.172;2023-02-01T04:14:07;6.30;99.90
53264;DHT22;39153;52.680;6.172;2023-02-01T04:16:33;6.30;99.90
53264;DHT22;39153;52.680;6.172;2023-02-01T04:18:59;6.30;99.90
53264;DHT22;39153;52.680;6.172;2023-02-01T04:21:25;6.60;99.90
53264;DHT22;39153;52.680;6.172;2023-02-01T04:23:52;6.30;99.90
53264;DHT22;39153;52.680;6.172;2023-02-01T04:26:18;6.20;99.90
53264;DHT22;39153;52.680;6.172;2023-02-01T04:28:45;6.30;99.90
53264;DHT22;39153;52.680;6.172;2023-02-01T04:31:14;6.30;99.90
53264;DHT22;39153;52.680;6.172;2023-02-01T04:33:39;6.30;99.90
53264;DHT22;39153;52.680;6.172;2023-02-01T04:36:05;6.30;99.90
53264;DHT22;39153;52.680;6.172;2023-02-01T04:38:31;6.30;99.90
53264;DHT22;39153;52.680;6.172;2023-02-01T04:40:58;6.30;99.90
53264;DHT22;39153;52.680;6.172;2023-02-01T04:43:24;6.40;99.90
53264;DHT22;39153;52.680;6.172;2023-02-01T04:45:51;6.30;99.90
53264;DHT22;39153;52.680;6.172;2023-02-01T04:48:18;6.50;99.90
53264;DHT22;39153;52.680;6.172;2023-02-01T04:50:45;6.30;99.90
53264;DHT22;39153;52.680;6.172;2023-02-01T04:53:14;6.40;99.90
53264;DHT22;39153;52.680;6.172;2023-02-01T04:55:41;6.30;99.90
53264;DHT22;39153;52.680;6.172;2023-02-01T04:58:06;6.40;99.90
53264;DHT22;39153;52.680;6.172;2023-02-01T05:00:32;6.30;99.90
53264;DHT22;39153;52.680;6.172;2023-02-01T05:02:58;6.40;99.90
53264;DHT22;39153;52.680;6.172;2023-02-01T05:05:23;6.40;99.90
53264;DHT22;39153;52.680;6.172;2023-02-01T05:07:49;6.30;99.90
53264;DHT22;39153;52.680;6.172;2023-02-01T05:10:15;6.30;99.90
53264;DHT22;39153;52.680;6.172;2023-02-01T05:12:46;6.20;99.90
53264;DHT22;39153;52.680;6.172;2023-02-01T05:15:31;6.20;99.90
53264;DHT22;39153;52.680;6.172;2023-02-01T05:17:57;6.20;99.90
53264;DHT22;39153;52.680;6.172;2023-02-01T05:20:23;6.20;99.90
53264;DHT22;39153;52.680;6.172;2023-02-01T05:22:49;6.20;99.90
53264;DHT22;39153;52.680;6.172;2023-02-01T05:25:15;6.30;99.90
53264;DHT22;39153;52.680;6.172;2023-02-01T05:27:41;6.20;99.90
53264;DHT22;39153;52.680;6.172;2023-02-01T05:30:07;6.20;99.90
53264;DHT22;39153;52.680;6.172;2023-02-01T05:32:33;6.20;99.90
53264;DHT22;39153;52.680;6.172;2023-02-01T05:34:59;6.20;99.90
53264;DHT22;39153;52.680;6.172;2023-02-01T05:37:25;6.20;99.90
53264;DHT22;39153;52.680;6.172;2023-02-01T05:39:50;6.30;99.90
53264;DHT22;39153;52.680;6.172;2023-02-01T05:42:16;6.30;99.90
53264;DHT22;39153;52.680;6.172;2023-02-01T05:44:42;6.50;99.90
53264;DHT22;39153;52.680;6.172;2023-02-01T05:47:07;6.40;99.90
53264;DHT22;39153;52.680;6.172;2023-02-01T05:49:33;6.40;99.90
53264;DHT22;39153;52.680;6.172;2023-02-01T05:51:59;6.40;99.90
53264;DHT22;39153;52.680;6.172;2023-02-01T05:54:25;6.50;99.90
53264;DHT22;39153;52.680;6.172;2023-02-01T05:56:50;6.40;99.90
53264;DHT22;39153;52.680;6.172;2023-02-01T05:59:17;6.40;99.90
53264;DHT22;39153;52.680;6.172;2023-02-01T06:01:43;6.50;99.90
53264;DHT22;39153;52.680;6.172;2023-02-01T06:04:08;6.50;99.90
53264;DHT22;39153;52.680;6.172;2023-02-01T06:06:34;6.50;99.90
53264;DHT22;39153;52.680;6.172;2023-02-01T06:09:00;6.50;99.90
53264;DHT22;39153;52.680;6.172;2023-02-01T06:11:26;6.50;99.90
53264;DHT22;39153;52.680;6.172;2023-02-01T06:13:52;6.50;99.90
53264;DHT22;39153;52.680;6.172;2023-02-01T06:16:17;6.40;99.90
53264;DHT22;39153;52.680;6.172;2023-02-01T06:18:43;6.50;99.90
53264;DHT22;39153;52.680;6.172;2023-02-01T06:21:09;6.50;99.90
53264;DHT22;39153;52.680;6.172;2023-02-01T06:23:34;6.50;99.90
53264;DHT22;39153;52.680;6.172;2023-02-01T06:26:09;6.50;99.90
53264;DHT22;39153;52.680;6.172;2023-02-01T06:28:35;6.50;99.90
53264;DHT22;39153;52.680;6.172;2023-02-01T06:31:07;6.50;99.90
53264;DHT22;39153;52.680;6.172;2023-02-01T06:33:33;6.60;99.90
53264;DHT22;39153;52.680;6.172;2023-02-01T06:36:01;6.80;99.90
53264;DHT22;39153;52.680;6.172;2023-02-01T06:38:27;6.50;99.90
53264;DHT22;39153;52.680;6.172;2023-02-01T06:40:54;6.50;99.90
53264;DHT22;39153;52.680;6.172;2023-02-01T06:43:21;6.60;99.90
53264;DHT22;39153;52.680;6.172;2023-02-01T06:45:47;6.50;99.90
53264;DHT22;39153;52.680;6.172;2023-02-01T06:48:13;6.50;99.90
53264;DHT22;39153;52.680;6.172;2023-02-01T06:50:39;6.60;99.90
53264;DHT22;39153;52.680;6.172;2023-02-01T06:53:04;6.70;99.90
53264;DHT22;39153;52.680;6.172;2023-02-01T06:55:30;6.50;99.90
53264;DHT22;39153;52.680;6.172;2023-02-01T06:57:56;6.50;99.90
53264;DHT22;39153;52.680;6.172;2023-02-01T07:00:22;6.50;99.90
53264;DHT22;39153;52.680;6.172;2023-02-01T07:02:48;6.50;99.90
53264;DHT22;39153;52.680;6.172;2023-02-01T07:05:14;6.50;99.90
53264;DHT22;39153;52.680;6.172;2023-02-01T07:07:40;6.50;99.90
53264;DHT22;39153;52.680;6.172;2023-02-01T07:10:06;6.50;99.90
53264;DHT22;39153;52.680;6.172;2023-02-01T07:12:32;6.50;99.90
53264;DHT22;39153;52.680;6.172;2023-02-01T07:14:58;6.50;99.90
53264;DHT22;39153;52.680;6.172;2023-02-01T07:17:23;6.50;99.90
53264;DHT22;39153;52.680;6.172;2023-02-01T07:19:49;6.50;99.90
53264;DHT22;39153;52.680;6.172;2023-02-01T07:22:18;6.50;99.90
53264;DHT22;39153;52.680;6.172;2023-02-01T07:24:44;6.50;99.90
53264;DHT22;39153;52.680;6.172;2023-02-01T07:27:09;6.50;99.90
53264;DHT22;39153;52.680;6.172;2023-02-01T07:29:35;6.50;99.90
53264;DHT22;39153;52.680;6.172;2023-02-01T07:32:01;6.40;99.90
53264;DHT22;39153;52.680;6.172;2023-02-01T07:34:28;6.40;99.90
53264;DHT22;39153;52.680;6.172;2023-02-01T07:36:54;6.40;99.90
53264;DHT22;39153;52.680;6.172;2023-02-01T07:39:19;6.30;99.90
53264;DHT22;39153;52.680;6.172;2023-02-01T07:41:46;6.30;99.90
53264;DHT22;39153;52.680;6.172;2023-02-01T07:44:12;6.30;99.90
53264;DHT22;39153;52.680;6.172;2023-02-01T07:46:37;6.30;99.90
53264;DHT22;39153;52.680;6.172;2023-02-01T07:49:04;6.30;99.90
53264;DHT22;39153;52.680;6.172;2023-02-01T07:51:30;6.20;99.90
53264;DHT22;39153;52.680;6.172;2023-02-01T07:53:56;6.20;99.90
53264;DHT22;39153;52.680;6.172;2023-02-01T07:56:22;6.20;99.90
53264;DHT22;39153;52.680;6.172;2023-02-01T07:58:52;6.10;99.90
53264;DHT22;39153;52.680;6.172;2023-02-01T08:01:21;6.10;99.90
53264;DHT22;39153;52.680;6.172;2023-02-01T08:03:54;6.00;99.90
53264;DHT22;39153;52.680;6.172;2023-02-01T08:06:21;5.90;99.90
53264;DHT22;39153;52.680;6.172;2023-02-01T08:08:48;5.90;99.90
53264;DHT22;39153;52.680;6.172;2023-02-01T08:11:15;6.30;99.90
53264;DHT22;39153;52.680;6.172;2023-02-01T08:13:41;5.90;99.90
53264;DHT22;39153;52.680;6.172;2023-02-01T08:16:09;6.10;99.90
53264;DHT22;39153;52.680;6.172;2023-02-01T08:18:37;5.90;99.90
53264;DHT22;39153;52.680;6.172;2023-02-01T08:21:08;6.00;99.90
53264;DHT22;39153;52.680;6.172;2023-02-01T08:23:35;6.00;99.90
53264;DHT22;39153;52.680;6.172;2023-02-01T08:26:19;6.00;99.90
53264;DHT22;39153;52.680;6.172;2023-02-01T08:28:54;6.10;99.90
53264;DHT22;39153;52.680;6.172;2023-02-01T08:31:21;6.10;99.90
53264;DHT22;39153;52.680;6.172;2023-02-01T08:33:56;6.10;99.90
53264;DHT22;39153;52.680;6.172;2023-02-01T08:36:23;6.10;99.90
53264;DHT22;39153;52.680;6.172;2023-02-01T08:38:50;6.20;99.90
53264;DHT22;39153;52.680;6.172;2023-02-01T08:41:18;6.20;99.90
53264;DHT22;39153;52.680;6.172;2023-02-01T08:43:44;6.20;99.90
53264;DHT22;39153;52.680;6.172;2023-02-01T08:46:11;6.20;99.90
53264;DHT22;39153;52.680;6.172;2023-02-01T08:48:37;6.20;99.90
53264;DHT22;39153;52.680;6.172;2023-02-01T08:51:05;6.20;99.90
53264;DHT22;39153;52.680;6.172;2023-02-01T08:53:32;6.40;99.90
53264;DHT22;39153;52.680;6.172;2023-02-01T08:55:58;6.20;99.90
53264;DHT22;39153;52.680;6.172;2023-02-01T08:58:24;6.20;99.90
53264;DHT22;39153;52.680;6.172;2023-02-01T09:00:50;6.20;99.90
53264;DHT22;39153;52.680;6.172;2023-02-01T09:03:16;6.20;99.90
53264;DHT22;39153;52.680;6.172;2023-02-01T09:05:42;6.20;99.90
53264;DHT22;39153;52.680;6.172;2023-02-01T09:08:08;6.20;99.90
53264;DHT22;39153;52.680;6.172;2023-02-01T09:10:36;6.20;99.90
53264;DHT22;39153;52.680;6.172;2023-02-01T09:13:02;6.20;99.90
53264;DHT22;39153;52.680;6.172;2023-02-01T09:15:28;6.20;99.90
53264;DHT22;39153;52.680;6.172;2023-02-01T09:17:54;6.20;99.90
53264;DHT22;39153;52.680;6.172;2023-02-01T09:20:20;6.30;99.90
53264;DHT22;39153;52.680;6.172;2023-02-01T09:22:50;6.30;99.90
53264;DHT22;39153;52.680;6.172;2023-02-01T09:25:16;6.30;99.90
53264;DHT22;39153;52.680;6.172;2023-02-01T09:27:43;6.30;99.90
53264;DHT22;39153;52.680;6.172;2023-02-01T09:30:09;6.30;99.90
53264;DHT22;39153;52.680;6.172;2023-02-01T09:32:36;6.30;99.90
53264;DHT22;39153;52.680;6.172;2023-02-01T09:35:02;6.30;99.90
53264;DHT22;39153;52.680;6.172;2023-02-01T09:37:28;6.30;99.90
53264;DHT22;39153;52.680;6.172;2023-02-01T09:39:53;6.30;99.90
53264;DHT22;39153;52.680;6.172;2023-02-01T09:42:52;6.30;99.90
53264;DHT22;39153;52.680;6.172;2023-02-01T09:48:16;6.30;99.90
53264;DHT22;39153;52.680;6.172;2023-02-01T09:50:48;6.40;99.90
53264;DHT22;39153;52.680;6.172;2023-02-01T09:53:38;6.30;99.90
53264;DHT22;39153;52.680;6.172;2023-02-01T09:56:20;6.60;99.90
53264;DHT22;39153;52.680;6.172;2023-02-01T09:59:04;6.40;99.90
53264;DHT22;39153;52.680;6.172;2023-02-01T10:01:34;6.40;99.90
53264;DHT22;39153;52.680;6.172;2023-02-01T10:04:19;6.40;99.90
53264;DHT22;39153;52.680;6.172;2023-02-01T10:12:35;6.70;99.90
53264;DHT22;39153;52.680;6.172;2023-02-01T10:21:38;6.40;99.90
53264;DHT22;39153;52.680;6.172;2023-02-01T10:26:25;6.40;99.90
53264;DHT22;39153;52.680;6.172;2023-02-01T10:28:57;6.40;99.90
53264;DHT22;39153;52.680;6.172;2023-02-01T10:31:26;6.50;99.90
53264;DHT22;39153;52.680;6.172;2023-02-01T10:33:58;6.50;99.90
53264;DHT22;39153;52.680;6.172;2023-02-01T10:36:35;6.50;99.90
53264;DHT22;39153;52.680;6.172;2023-02-01T10:39:04;6.50;99.90
53264;DHT22;39153;52.680;6.172;2023-02-01T10:41:35;6.50;99.90
53264;DHT22;39153;52.680;6.172;2023-02-01T10:44:25;6.50;99.90
53264;DHT22;39153;52.680;6.172;2023-02-01T10:46:52;6.40;99.90
53264;DHT22;39153;52.680;6.172;2023-02-01T10:49:38;6.30;99.90
53264;DHT22;39153;52.680;6.172;2023-02-01T10:54:37;6.20;99.90
53264;DHT22;39153;52.680;6.172;2023-02-01T10:57:10;6.20;99.90
53264;DHT22;39153;52.680;6.172;2023-02-01T10:59:37;6.20;99.90
53264;DHT22;39153;52.680;6.172;2023-02-01T11:02:29;6.20;99.90
53264;DHT22;39153;52.680;6.172;2023-02-01T11:05:09;6.30;99.90
53264;DHT22;39153;52.680;6.172;2023-02-01T11:07:39;6.30;99.90
53264;DHT22;39153;52.680;6.172;2023-02-01T11:10:35;6.30;99.90
53264;DHT22;39153;52.680;6.172;2023-02-01T11:13:03;6.40;99.90
53264;DHT22;39153;52.680;6.172;2023-02-01T11:15:29;6.40;99.90
53264;DHT22;39153;52.680;6.172;2023-02-01T11:17:55;6.50;99.90
53264;DHT22;39153;52.680;6.172;2023-02-01T11:20:36;6.50;99.90
53264;DHT22;39153;52.680;6.172;2023-02-01T11:23:04;6.60;99.90
53264;DHT22;39153;52.680;6.172;2023-02-01T11:25:32;6.60;99.90
53264;DHT22;39153;52.680;6.172;2023-02-01T11:28:01;6.60;99.90
53264;DHT22;39153;52.680;6.172;2023-02-01T11:30:36;6.60;99.90
53264;DHT22;39153;52.680;6.172;2023-02-01T11:33:04;6.60;99.90
53264;DHT22;39153;52.680;6.172;2023-02-01T11:35:31;6.70;99.90
53264;DHT22;39153;52.680;6.172;2023-02-01T11:37:59;6.90;99.90
53264;DHT22;39153;52.680;6.172;2023-02-01T11:40:29;6.80;99.90
53264;DHT22;39153;52.680;6.172;2023-02-01T11:43:27;6.80;99.90
53264;DHT22;39153;52.680;6.172;2023-02-01T11:46:08;6.60;99.90
53264;DHT22;39153;52.680;6.172;2023-02-01T11:48:41;6.50;99.90
53264;DHT22;39153;52.680;6.172;2023-02-01T11:51:29;6.40;99.90
53264;DHT22;39153;52.680;6.172;2023-02-01T11:59:22;6.50;99.90
53264;DHT22;39153;52.680;6.172;2023-02-01T12:19:09;6.50;99.90
53264;DHT22;39153;52.680;6.172;2023-02-01T12:42:57;6.60;99.90
53264;DHT22;39153;52.680;6.172;2023-02-01T12:45:48;6.60;99.90
53264;DHT22;39153;52.680;6.172;2023-02-01T12:48:35;6.50;99.90
53264;DHT22;39153;52.680;6.172;2023-02-01T12:51:12;6.50;99.90
53264;DHT22;39153;52.680;6.172;2023-02-01T12:56:26;6.70;99.90
53264;DHT22;39153;52.680;6.172;2023-02-01T12:58:56;6.80;99.90
53264;DHT22;39153;52.680;6.172;2023-02-01T13:01:48;6.90;99.90
53264;DHT22;39153;52.680;6.172;2023-02-01T13:04:32;6.80;99.90
53264;DHT22;39153;52.680;6.172;2023-02-01T13:09:39;7.00;99.90
53264;DHT22;39153;52.680;6.172;2023-02-01T13:12:29;7.00;99.90
53264;DHT22;39153;52.680;6.172;2023-02-01T13:15:02;7.10;99.90
53264;DHT22;39153;52.680;6.172;2023-02-01T13:17:32;7.00;99.90
53264;DHT22;39153;52.680;6.172;2023-02-01T13:22:42;7.10;99.90
53264;DHT22;39153;52.680;6.172;2023-02-01T13:25:17;7.10;99.90
53264;DHT22;39153;52.680;6.172;2023-02-01T13:27:45;7.10;99.90
53264;DHT22;39153;52.680;6.172;2023-02-01T13:33:03;7.20;99.90
53264;DHT22;39153;52.680;6.172;2023-02-01T13:41:30;7.30;99.90
53264;DHT22;39153;52.680;6.172;2023-02-01T13:44:04;7.30;99.90
53264;DHT22;39153;52.680;6.172;2023-02-01T13:46:38;7.30;99.90
53264;DHT22;39153;52.680;6.172;2023-02-01T13:49:04;7.40;99.90
53264;DHT22;39153;52.680;6.172;2023-02-01T13:54:03;7.40;99.90
53264;DHT22;39153;52.680;6.172;2023-02-01T13:56:42;7.40;99.90
53264;DHT22;39153;52.680;6.172;2023-02-01T14:02:37;7.50;99.90
53264;DHT22;39153;52.680;6.172;2023-02-01T14:05:03;7.50;99.90
53264;DHT22;39153;52.680;6.172;2023-02-01T14:07:30;7.50;99.90
53264;DHT22;39153;52.680;6.172;2023-02-01T14:09:56;7.40;99.90
53264;DHT22;39153;52.680;6.172;2023-02-01T14:12:44;7.50;99.90
53264;DHT22;39153;52.680;6.172;2023-02-01T14:15:19;7.40;99.90
53264;DHT22;39153;52.680;6.172;2023-02-01T14:17:47;7.50;99.90
53264;DHT22;39153;52.680;6.172;2023-02-01T14:20:42;7.40;99.90
53264;DHT22;39153;52.680;6.172;2023-02-01T14:23:29;7.50;99.90
53264;DHT22;39153;52.680;6.172;2023-02-01T14:26:05;7.60;99.90
53264;DHT22;39153;52.680;6.172;2023-02-01T14:28:34;7.60;99.90
53264;DHT22;39153;52.680;6.172;2023-02-01T14:31:14;7.60;99.90
53264;DHT22;39153;52.680;6.172;2023-02-01T14:33:41;7.70;99.90
53264;DHT22;39153;52.680;6.172;2023-02-01T14:36:12;7.80;99.90
53264;DHT22;39153;52.680;6.172;2023-02-01T14:38:39;7.80;99.90
53264;DHT22;39153;52.680;6.172;2023-02-01T14:47:06;7.70;99.90
53264;DHT22;39153;52.680;6.172;2023-02-01T14:49:34;7.70;99.90
53264;DHT22;39153;52.680;6.172;2023-02-01T14:52:06;7.60;99.90
53264;DHT22;39153;52.680;6.172;2023-02-01T14:54:35;7.70;99.90
53264;DHT22;39153;52.680;6.172;2023-02-01T14:57:02;7.70;99.90
53264;DHT22;39153;52.680;6.172;2023-02-01T14:59:30;7.70;99.90
53264;DHT22;39153;52.680;6.172;2023-02-01T15:01:59;7.70;99.90
53264;DHT22;39153;52.680;6.172;2023-02-01T15:04:27;7.70;99.90
53264;DHT22;39153;52.680;6.172;2023-02-01T15:07:05;7.60;99.90
53264;DHT22;39153;52.680;6.172;2023-02-01T15:09:36;7.60;99.90
53264;DHT22;39153;52.680;6.172;2023-02-01T15:14:31;7.50;99.90
53264;DHT22;39153;52.680;6.172;2023-02-01T15:16:57;7.50;99.90
53264;DHT22;39153;52.680;6.172;2023-02-01T15:19:26;7.50;99.90
53264;DHT22;39153;52.680;6.172;2023-02-01T15:21:56;7.50;99.90
53264;DHT22;39153;52.680;6.172;2023-02-01T15:24:28;7.50;99.90
53264;DHT22;39153;52.680;6.172;2023-02-01T15:26:55;7.50;99.90
53264;DHT22;39153;52.680;6.172;2023-02-01T15:29:23;7.40;99.90
53264;DHT22;39153;52.680;6.172;2023-02-01T15:31:53;7.40;99.90
53264;DHT22;39153;52.680;6.172;2023-02-01T15:34:20;7.40;99.90
53264;DHT22;39153;52.680;6.172;2023-02-01T15:36:46;7.40;99.90
53264;DHT22;39153;52.680;6.172;2023-02-01T15:39:18;7.40;99.90
53264;DHT22;39153;52.680;6.172;2023-02-01T15:42:11;7.30;99.90
53264;DHT22;39153;52.680;6.172;2023-02-01T15:44:42;7.40;99.90
53264;DHT22;39153;52.680;6.172;2023-02-01T15:47:24;7.30;99.90
53264;DHT22;39153;52.680;6.172;2023-02-01T15:49:55;7.30;99.90
53264;DHT22;39153;52.680;6.172;2023-02-01T15:52:42;7.20;99.90
53264;DHT22;39153;52.680;6.172;2023-02-01T15:55:36;7.20;99.90
53264;DHT22;39153;52.680;6.172;2023-02-01T15:58:14;7.20;99.90
53264;DHT22;39153;52.680;6.172;2023-02-01T16:00:45;7.10;99.90
53264;DHT22;39153;52.680;6.172;2023-02-01T16:03:28;7.00;99.90
53264;DHT22;39153;52.680;6.172;2023-02-01T16:06:00;7.00;99.90
53264;DHT22;39153;52.680;6.172;2023-02-01T16:08:28;6.90;99.90
53264;DHT22;39153;52.680;6.172;2023-02-01T16:11:41;6.90;99.90
53264;DHT22;39153;52.680;6.172;2023-02-01T16:13:41;6.80;99.90
53264;DHT22;39153;52.680;6.172;2023-02-01T16:16:08;7.00;99.90
53264;DHT22;39153;52.680;6.172;2023-02-01T16:18:39;6.80;99.90
53264;DHT22;39153;52.680;6.172;2023-02-01T16:21:06;6.80;99.90
53264;DHT22;39153;52.680;6.172;2023-02-01T16:23:34;6.80;99.90
53264;DHT22;39153;52.680;6.172;2023-02-01T16:26:00;6.70;99.90
53264;DHT22;39153;52.680;6.172;2023-02-01T16:28:26;8.10;99.90
53264;DHT22;39153;52.680;6.172;2023-02-01T16:30:52;6.70;99.90
53264;DHT22;39153;52.680;6.172;2023-02-01T16:33:19;6.70;99.90
53264;DHT22;39153;52.680;6.172;2023-02-01T16:35:48;6.70;99.90
53264;DHT22;39153;52.680;6.172;2023-02-01T16:38:16;6.80;99.90
53264;DHT22;39153;52.680;6.172;2023-02-01T16:40:45;6.60;99.90
53264;DHT22;39153;52.680;6.172;2023-02-01T16:43:22;6.60;99.90
53264;DHT22;39153;52.680;6.172;2023-02-01T16:45:50;6.60;99.90
53264;DHT22;39153;52.680;6.172;2023-02-01T16:48:25;6.60;99.90
53264;DHT22;39153;52.680;6.172;2023-02-01T16:50:54;6.60;99.90
53264;DHT22;39153;52.680;6.172;2023-02-01T16:53:21;6.70;99.90
53264;DHT22;39153;52.680;6.172;2023-02-01T16:55:47;6.60;99.90
53264;DHT22;39153;52.680;6.172;2023-02-01T16:58:16;6.80;99.90
53264;DHT22;39153;52.680;6.172;2023-02-01T17:00:42;6.60;99.90
53264;DHT22;39153;52.680;6.172;2023-02-01T17:03:10;6.60;99.90
53264;DHT22;39153;52.680;6.172;2023-02-01T17:05:52;6.80;99.90
53264;DHT22;39153;52.680;6.172;2023-02-01T17:08:29;6.60;99.90
53264;DHT22;39153;52.680;6.172;2023-02-01T17:10:56;6.60;99.90
53264;DHT22;39153;52.680;6.172;2023-02-01T17:13:22;6.60;99.90
53264;DHT22;39153;52.680;6.172;2023-02-01T17:16:00;6.70;99.90
53264;DHT22;39153;52.680;6.172;2023-02-01T17:18:28;6.70;99.90
53264;DHT22;39153;52.680;6.172;2023-02-01T17:20:57;6.70;99.90
53264;DHT22;39153;52.680;6.172;2023-02-01T17:23:23;6.60;99.90
53264;DHT22;39153;52.680;6.172;2023-02-01T17:25:49;6.60;99.90
53264;DHT22;39153;52.680;6.172;2023-02-01T17:28:15;6.70;99.90
53264;DHT22;39153;52.680;6.172;2023-02-01T17:30:41;6.60;99.90
53264;DHT22;39153;52.680;6.172;2023-02-01T17:33:36;6.60;99.90
53264;DHT22;39153;52.680;6.172;2023-02-01T17:36:01;6.60;99.90
53264;DHT22;39153;52.680;6.172;2023-02-01T17:38:28;6.50;99.90
53264;DHT22;39153;52.680;6.172;2023-02-01T17:40:54;6.60;99.90
53264;DHT22;39153;52.680;6.172;2023-02-01T17:43:22;6.50;99.90
53264;DHT22;39153;52.680;6.172;2023-02-01T17:46:14;6.40;99.90
53264;DHT22;39153;52.680;6.172;2023-02-01T17:48:40;6.50;99.90
53264;DHT22;39153;52.680;6.172;2023-02-01T17:51:26;6.40;99.90
53264;DHT22;39153;52.680;6.172;2023-02-01T17:53:53;6.40;99.90
53264;DHT22;39153;52.680;6.172;2023-02-01T17:56:21;6.40;99.90
53264;DHT22;39153;52.680;6.172;2023-02-01T17:58:47;6.40;99.90
53264;DHT22;39153;52.680;6.172;2023-02-01T18:01:24;6.40;99.90
53264;DHT22;39153;52.680;6.172;2023-02-01T18:03:50;6.40;99.90
53264;DHT22;39153;52.680;6.172;2023-02-01T18:06:22;6.30;99.90
53264;DHT22;39153;52.680;6.172;2023-02-01T18:08:48;6.30;99.90